createdAt,value
2019-05-18T00:00:21.607Z,19.07
2019-05-18T00:01:22.180Z,19.07
2019-05-18T00:02:22.746Z,19.04
2019-05-18T00:03:23.317Z,19.08
2019-05-18T00:04:23.887Z,18.98
2019-05-18T00:05:24.458Z,19.08
2019-05-18T00:06:25.028Z,19.04
2019-05-18T00:07:25.597Z,19.11
2019-05-18T00:08:26.167Z,19.08
2019-05-18T00:09:26.736Z,19.12
2019-05-18T00:10:27.305Z,19.14
2019-05-18T00:11:27.882Z,19.16
2019-05-18T00:12:28.493Z,19.11
2019-05-18T00:13:29.063Z,19.14
2019-05-18T00:14:29.633Z,19.19
2019-05-18T00:15:30.203Z,19.19
2019-05-18T00:16:30.775Z,19.18
2019-05-18T00:17:31.346Z,19.14
2019-05-18T00:18:31.918Z,19.07
2019-05-18T00:19:32.489Z,19.11
2019-05-18T00:20:33.058Z,19.07
2019-05-18T00:21:33.628Z,19.11
2019-05-18T00:22:34.200Z,18.98
2019-05-18T00:23:34.771Z,19.11
2019-05-18T00:24:35.348Z,18.99
2019-05-18T00:25:35.912Z,19.16
2019-05-18T00:26:36.509Z,19.18
2019-05-18T00:27:37.090Z,19.07
2019-05-18T00:28:37.661Z,19.08
2019-05-18T00:29:38.231Z,19.18
2019-05-18T00:30:38.805Z,19.09
2019-05-18T00:31:39.375Z,19.12
2019-05-18T00:32:40.026Z,19.11
2019-05-18T00:33:40.560Z,19.12
2019-05-18T00:34:41.169Z,19.09
2019-05-18T00:35:41.741Z,19.07
2019-05-18T00:36:42.363Z,19.09
2019-05-18T00:37:42.924Z,19.08
2019-05-18T00:38:43.493Z,19.09
2019-05-18T00:39:44.107Z,19.12
2019-05-18T00:40:44.678Z,19.09
2019-05-18T00:41:45.625Z,19.09
2019-05-18T00:42:45.862Z,19.15
2019-05-18T00:43:46.432Z,19.12
2019-05-18T00:44:47.002Z,19.12
2019-05-18T00:45:47.573Z,19.18
2019-05-18T00:46:48.162Z,19.09
2019-05-18T00:47:48.724Z,19.09
2019-05-18T00:48:49.288Z,19.15
2019-05-18T00:49:49.858Z,19.11
2019-05-18T00:50:50.436Z,19.09
2019-05-18T00:51:51.044Z,19.12
2019-05-18T00:52:51.613Z,19.15
2019-05-18T00:53:52.186Z,19.11
2019-05-18T00:54:52.757Z,19.18
2019-05-18T00:55:53.326Z,19.11
2019-05-18T00:56:53.898Z,19.00
2019-05-18T00:57:54.511Z,19.07
2019-05-18T00:58:55.084Z,19.09
2019-05-18T00:59:55.653Z,19.09
2019-05-18T01:00:56.223Z,19.15
2019-05-18T01:01:56.797Z,19.08
2019-05-18T01:02:57.366Z,19.07
2019-05-18T01:03:57.934Z,19.08
2019-05-18T01:04:58.503Z,19.08
2019-05-18T01:05:59.072Z,19.07
2019-05-18T01:06:59.641Z,18.98
2019-05-18T01:08:00.212Z,19.09
2019-05-18T01:09:00.780Z,19.00
2019-05-18T01:10:01.349Z,19.04
2019-05-18T01:11:01.922Z,19.11
2019-05-18T01:12:02.491Z,19.07
2019-05-18T01:13:03.061Z,19.08
2019-05-18T01:14:03.636Z,19.07
2019-05-18T01:15:04.248Z,19.07
2019-05-18T01:16:04.818Z,19.00
2019-05-18T01:17:05.390Z,18.99
2019-05-18T01:18:05.962Z,19.02
2019-05-18T01:19:06.530Z,18.99
2019-05-18T01:20:07.109Z,19.14
2019-05-18T01:21:07.713Z,19.09
2019-05-18T01:22:08.287Z,19.07
2019-05-18T01:23:08.898Z,19.02
2019-05-18T01:24:09.468Z,18.99
2019-05-18T01:25:10.039Z,19.07
2019-05-18T01:26:10.607Z,19.07
2019-05-18T01:27:11.176Z,19.00
2019-05-18T01:28:11.751Z,19.08
2019-05-18T01:29:12.319Z,19.07
2019-05-18T01:30:12.885Z,19.04
2019-05-18T01:31:13.459Z,19.04
2019-05-18T01:32:14.045Z,18.98
2019-05-18T01:33:14.648Z,18.99
2019-05-18T01:34:15.217Z,19.07
2019-05-18T01:35:15.788Z,19.02
2019-05-18T01:36:16.358Z,19.07
2019-05-18T01:37:16.929Z,18.99
2019-05-18T01:38:17.498Z,19.00
2019-05-18T01:39:18.070Z,19.04
2019-05-18T01:40:18.640Z,19.00
2019-05-18T01:41:19.251Z,19.04
2019-05-18T01:42:19.825Z,19.09
2019-05-18T01:43:20.394Z,19.04
2019-05-18T01:44:20.963Z,19.11
2019-05-18T01:45:21.534Z,19.00
2019-05-18T01:46:22.105Z,19.04
2019-05-18T01:47:22.671Z,19.00
2019-05-18T01:48:23.290Z,19.04
2019-05-18T01:49:23.856Z,19.09
2019-05-18T01:50:24.426Z,19.07
2019-05-18T01:51:24.998Z,19.07
2019-05-18T01:52:25.569Z,19.04
2019-05-18T01:53:26.138Z,19.12
2019-05-18T01:54:26.710Z,19.09
2019-05-18T01:55:27.280Z,19.11
2019-05-18T01:56:27.850Z,19.12
2019-05-18T01:57:28.448Z,19.16
2019-05-18T01:58:28.992Z,19.12
2019-05-18T01:59:29.564Z,19.00
2019-05-18T02:00:30.132Z,19.02
2019-05-18T02:01:30.702Z,19.04
2019-05-18T02:02:31.272Z,19.14
2019-05-18T02:03:31.843Z,19.08
2019-05-18T02:04:32.414Z,18.95
2019-05-18T02:05:32.985Z,18.98
2019-05-18T02:06:33.553Z,18.90
2019-05-18T02:07:34.121Z,18.84
2019-05-18T02:08:34.695Z,18.90
2019-05-18T02:09:35.266Z,18.89
2019-05-18T02:10:35.845Z,18.89
2019-05-18T02:11:36.450Z,18.81
2019-05-18T02:12:37.020Z,18.77
2019-05-18T02:13:37.591Z,18.74
2019-05-18T02:14:38.162Z,18.77
2019-05-18T02:15:38.732Z,18.71
2019-05-18T02:16:39.304Z,18.77
2019-05-18T02:17:39.874Z,18.78
2019-05-18T02:18:40.443Z,18.70
2019-05-18T02:19:41.014Z,18.77
2019-05-18T02:20:41.602Z,18.80
2019-05-18T02:21:42.195Z,18.71
2019-05-18T02:22:42.769Z,18.74
2019-05-18T02:23:43.337Z,18.59
2019-05-18T02:24:43.907Z,18.65
2019-05-18T02:25:44.520Z,18.59
2019-05-18T02:26:45.089Z,18.63
2019-05-18T02:27:45.661Z,18.66
2019-05-18T02:28:46.272Z,18.60
2019-05-18T02:29:46.844Z,18.63
2019-05-18T02:30:47.414Z,18.60
2019-05-18T02:31:47.987Z,18.62
2019-05-18T02:32:48.608Z,18.62
2019-05-18T02:33:49.212Z,18.68
2019-05-18T02:34:49.782Z,18.65
2019-05-18T02:35:50.353Z,18.52
2019-05-18T02:36:50.924Z,18.58
2019-05-18T02:37:51.496Z,18.52
2019-05-18T02:38:52.067Z,18.59
2019-05-18T02:39:52.675Z,18.53
2019-05-18T02:40:53.245Z,18.56
2019-05-18T02:41:53.838Z,18.56
2019-05-18T02:42:54.385Z,18.65
2019-05-18T02:43:54.957Z,18.65
2019-05-18T02:44:55.523Z,18.53
2019-05-18T02:45:56.106Z,18.65
2019-05-18T02:46:56.663Z,18.66
2019-05-18T02:47:57.233Z,18.53
2019-05-18T02:48:57.829Z,18.60
2019-05-18T02:49:58.407Z,18.60
2019-05-18T02:50:58.970Z,18.68
2019-05-18T02:51:59.540Z,18.60
2019-05-18T02:53:00.114Z,18.65
2019-05-18T02:54:00.679Z,18.62
2019-05-18T02:55:01.273Z,18.63
2019-05-18T02:56:01.826Z,18.63
2019-05-18T02:57:02.437Z,18.71
2019-05-18T02:58:03.006Z,18.65
2019-05-18T02:59:03.577Z,18.73
2019-05-18T03:00:04.147Z,18.74
2019-05-18T03:01:04.715Z,18.73
2019-05-18T03:02:05.287Z,18.73
2019-05-18T03:03:05.858Z,18.75
2019-05-18T03:04:06.430Z,18.75
2019-05-18T03:05:07.002Z,18.71
2019-05-18T03:06:07.576Z,18.75
2019-05-18T03:07:08.184Z,18.71
2019-05-18T03:08:08.796Z,18.73
2019-05-18T03:09:09.365Z,18.75
2019-05-18T03:10:09.938Z,18.73
2019-05-18T03:11:10.507Z,18.74
2019-05-18T03:12:11.077Z,18.75
2019-05-18T03:13:11.648Z,18.77
2019-05-18T03:14:12.218Z,18.71
2019-05-18T03:15:12.788Z,18.71
2019-05-18T03:16:13.366Z,18.77
2019-05-18T03:17:13.979Z,18.74
2019-05-18T03:18:14.590Z,18.71
2019-05-18T03:19:15.157Z,18.77
2019-05-18T03:20:15.733Z,18.77
2019-05-18T03:21:16.296Z,18.74
2019-05-18T03:22:16.872Z,18.71
2019-05-18T03:23:17.438Z,18.75
2019-05-18T03:24:18.009Z,18.78
2019-05-18T03:25:18.579Z,18.77
2019-05-18T03:26:19.148Z,18.71
2019-05-18T03:27:19.725Z,18.75
2019-05-18T03:28:20.290Z,18.77
2019-05-18T03:29:20.900Z,18.74
2019-05-18T03:30:21.490Z,18.73
2019-05-18T03:31:22.225Z,18.74
2019-05-18T03:32:22.762Z,18.68
2019-05-18T03:33:29.007Z,18.75
2019-05-18T03:34:24.905Z,18.74
2019-05-18T03:35:25.457Z,18.74
2019-05-18T03:36:26.063Z,18.75
2019-05-18T03:37:26.673Z,18.73
2019-05-18T03:38:27.244Z,18.70
2019-05-18T03:39:27.811Z,18.71
2019-05-18T03:40:28.386Z,18.74
2019-05-18T03:41:28.956Z,18.74
2019-05-18T03:42:29.522Z,18.65
2019-05-18T03:43:30.093Z,18.70
2019-05-18T03:44:30.663Z,18.63
2019-05-18T03:45:31.234Z,18.62
2019-05-18T03:46:31.806Z,18.68
2019-05-18T03:47:32.376Z,18.74
2019-05-18T03:48:32.945Z,18.66
2019-05-18T03:49:33.515Z,18.63
2019-05-18T03:50:34.085Z,18.73
2019-05-18T03:51:34.653Z,18.66
2019-05-18T03:52:35.226Z,18.63
2019-05-18T03:53:35.838Z,18.68
2019-05-18T03:54:36.410Z,18.59
2019-05-18T03:55:36.987Z,18.62
2019-05-18T03:56:37.591Z,18.63
2019-05-18T03:57:38.162Z,18.60
2019-05-18T03:58:38.733Z,18.63
2019-05-18T03:59:39.302Z,18.63
2019-05-18T04:00:39.873Z,18.66
2019-05-18T04:01:40.452Z,18.62
2019-05-18T04:02:41.011Z,18.66
2019-05-18T04:03:41.586Z,18.62
2019-05-18T04:04:42.199Z,18.62
2019-05-18T04:05:42.767Z,18.66
2019-05-18T04:06:43.337Z,18.65
2019-05-18T04:07:43.908Z,18.63
2019-05-18T04:08:44.480Z,18.66
2019-05-18T04:09:45.048Z,18.74
2019-05-18T04:10:45.616Z,18.73
2019-05-18T04:11:46.190Z,18.71
2019-05-18T04:12:46.757Z,18.73
2019-05-18T04:13:47.326Z,18.71
2019-05-18T04:14:47.919Z,18.68
2019-05-18T04:15:48.510Z,18.65
2019-05-18T04:16:49.079Z,18.65
2019-05-18T04:17:49.651Z,18.65
2019-05-18T04:18:50.231Z,18.73
2019-05-18T04:19:50.833Z,18.74
2019-05-18T04:20:51.406Z,18.74
2019-05-18T04:21:52.014Z,18.75
2019-05-18T04:22:52.583Z,18.75
2019-05-18T04:23:53.153Z,18.71
2019-05-18T04:24:53.725Z,18.71
2019-05-18T04:25:54.299Z,18.65
2019-05-18T04:26:54.863Z,18.70
2019-05-18T04:27:55.441Z,18.58
2019-05-18T04:28:56.002Z,18.63
2019-05-18T04:29:56.573Z,18.65
2019-05-18T04:30:57.143Z,18.53
2019-05-18T04:31:57.713Z,18.52
2019-05-18T04:32:58.287Z,18.45
2019-05-18T04:33:58.896Z,18.44
2019-05-18T04:34:59.465Z,18.55
2019-05-18T04:36:00.034Z,18.52
2019-05-18T04:37:00.606Z,18.50
2019-05-18T04:38:01.180Z,18.63
2019-05-18T04:39:01.779Z,18.60
2019-05-18T04:40:02.318Z,18.45
2019-05-18T04:41:02.887Z,18.55
2019-05-18T04:42:03.460Z,18.56
2019-05-18T04:43:04.028Z,18.52
2019-05-18T04:44:04.598Z,18.55
2019-05-18T04:45:05.173Z,18.55
2019-05-18T04:46:05.784Z,18.44
2019-05-18T04:47:06.354Z,18.41
2019-05-18T04:48:06.923Z,18.34
2019-05-18T04:49:07.496Z,18.33
2019-05-18T04:50:08.117Z,18.33
2019-05-18T04:51:08.677Z,18.29
2019-05-18T04:52:09.251Z,18.43
2019-05-18T04:53:09.865Z,18.31
2019-05-18T04:54:10.431Z,18.37
2019-05-18T04:55:11.004Z,18.38
2019-05-18T04:56:11.571Z,18.38
2019-05-18T04:57:12.146Z,18.43
2019-05-18T04:58:12.755Z,18.45
2019-05-18T04:59:13.327Z,18.38
2019-05-18T05:00:13.894Z,18.43
2019-05-18T05:01:14.464Z,18.43
2019-05-18T05:02:15.058Z,18.40
2019-05-18T05:03:15.606Z,18.41
2019-05-18T05:04:16.176Z,18.41
2019-05-18T05:05:16.745Z,18.44
2019-05-18T05:06:17.315Z,18.45
2019-05-18T05:07:17.885Z,18.41
2019-05-18T05:08:18.454Z,18.38
2019-05-18T05:09:19.062Z,18.44
2019-05-18T05:10:19.640Z,18.47
2019-05-18T05:11:20.207Z,18.49
2019-05-18T05:12:20.780Z,18.43
2019-05-18T05:13:21.393Z,18.41
2019-05-18T05:14:21.964Z,18.43
2019-05-18T05:15:22.577Z,18.41
2019-05-18T05:16:23.156Z,18.53
2019-05-18T05:17:23.764Z,18.56
2019-05-18T05:18:24.329Z,18.50
2019-05-18T05:19:24.899Z,18.56
2019-05-18T05:20:25.468Z,18.53
2019-05-18T05:21:26.038Z,18.56
2019-05-18T05:22:26.616Z,18.49
2019-05-18T05:23:27.230Z,18.41
2019-05-18T05:24:27.793Z,18.41
2019-05-18T05:25:28.363Z,18.44
2019-05-18T05:26:28.934Z,18.44
2019-05-18T05:27:29.504Z,18.43
2019-05-18T05:28:30.082Z,18.43
2019-05-18T05:29:30.690Z,18.37
2019-05-18T05:31:46.681Z,18.43
2019-05-18T05:32:47.251Z,18.41
2019-05-18T05:33:47.822Z,18.41
2019-05-18T05:34:48.391Z,18.38
2019-05-18T05:35:48.960Z,18.41
2019-05-18T05:36:49.529Z,18.37
2019-05-18T05:37:50.099Z,18.38
2019-05-18T05:38:50.672Z,18.38
2019-05-18T05:39:51.285Z,18.31
2019-05-18T05:40:51.851Z,18.34
2019-05-18T05:41:52.419Z,18.44
2019-05-18T05:42:52.996Z,18.37
2019-05-18T05:43:53.603Z,18.41
2019-05-18T05:44:54.171Z,18.41
2019-05-18T05:45:54.741Z,18.44
2019-05-18T05:46:55.310Z,18.49
2019-05-18T05:47:55.882Z,18.37
2019-05-18T05:48:56.451Z,18.40
2019-05-18T05:49:57.027Z,18.44
2019-05-18T05:50:57.633Z,18.40
2019-05-18T05:51:58.206Z,18.41
2019-05-18T05:52:58.771Z,18.41
2019-05-18T05:53:59.341Z,18.40
2019-05-18T05:54:59.912Z,18.49
2019-05-18T05:56:00.486Z,18.43
2019-05-18T05:57:01.051Z,18.47
2019-05-18T05:58:01.625Z,18.41
2019-05-18T05:59:02.197Z,18.47
2019-05-18T06:00:02.805Z,18.45
2019-05-18T06:01:03.377Z,18.56
2019-05-18T06:02:03.999Z,18.59
2019-05-18T06:03:04.601Z,18.53
2019-05-18T06:04:05.171Z,18.58
2019-05-18T06:05:05.739Z,18.55
2019-05-18T06:06:06.309Z,18.56
2019-05-18T06:07:06.903Z,18.56
2019-05-18T06:08:07.458Z,18.55
2019-05-18T06:09:08.063Z,18.53
2019-05-18T06:10:08.634Z,18.58
2019-05-18T06:11:09.203Z,18.56
2019-05-18T06:12:09.772Z,18.56
2019-05-18T06:13:10.341Z,18.52
2019-05-18T06:14:10.911Z,18.55
2019-05-18T06:15:11.481Z,18.55
2019-05-18T06:16:12.050Z,18.56
2019-05-18T06:17:12.619Z,18.52
2019-05-18T06:18:13.192Z,18.58
2019-05-18T06:19:13.799Z,18.52
2019-05-18T06:20:14.375Z,18.52
2019-05-18T06:21:14.945Z,18.52
2019-05-18T06:22:15.515Z,18.52
2019-05-18T06:23:16.087Z,18.56
2019-05-18T06:24:16.658Z,18.59
2019-05-18T06:25:17.227Z,18.44
2019-05-18T06:26:17.799Z,18.55
2019-05-18T06:27:18.370Z,18.44
2019-05-18T06:28:18.936Z,18.50
2019-05-18T06:29:19.507Z,18.50
2019-05-18T06:30:20.078Z,18.43
2019-05-18T06:31:23.057Z,18.50
2019-05-18T06:32:21.261Z,18.56
2019-05-18T06:33:21.828Z,18.56
2019-05-18T06:34:22.396Z,18.58
2019-05-18T06:35:22.976Z,18.53
2019-05-18T06:36:23.579Z,18.50
2019-05-18T06:37:24.165Z,18.53
2019-05-18T06:38:24.762Z,18.55
2019-05-18T06:39:25.339Z,18.63
2019-05-18T06:40:25.945Z,18.50
2019-05-18T06:41:26.542Z,18.56
2019-05-18T06:42:27.141Z,18.52
2019-05-18T06:43:27.710Z,18.58
2019-05-18T06:44:28.319Z,18.52
2019-05-18T06:45:28.894Z,18.55
2019-05-18T06:46:29.501Z,18.52
2019-05-18T06:47:30.093Z,18.55
2019-05-18T06:48:30.684Z,18.58
2019-05-18T06:49:31.271Z,18.52
2019-05-18T06:50:31.880Z,18.60
2019-05-18T06:51:32.481Z,18.44
2019-05-18T06:52:33.088Z,18.65
2019-05-18T06:53:33.662Z,18.56
2019-05-18T06:54:34.290Z,18.63
2019-05-18T06:55:34.889Z,18.49
2019-05-18T06:56:35.460Z,18.52
2019-05-18T06:57:36.050Z,18.41
2019-05-18T06:58:36.643Z,18.49
2019-05-18T06:59:37.252Z,18.56
2019-05-18T07:00:37.836Z,18.53
2019-05-18T07:01:38.459Z,18.53
2019-05-18T07:02:39.052Z,18.53
2019-05-18T07:03:39.664Z,18.60
2019-05-18T07:04:40.241Z,18.65
2019-05-18T07:05:40.849Z,18.58
2019-05-18T07:06:41.461Z,18.58
2019-05-18T07:07:42.033Z,18.63
2019-05-18T07:08:42.645Z,18.58
2019-05-18T07:09:43.218Z,18.63
2019-05-18T07:10:44.028Z,18.62
2019-05-18T07:11:44.598Z,18.65
2019-05-18T07:12:45.218Z,18.63
2019-05-18T07:13:45.795Z,18.60
2019-05-18T07:14:46.403Z,18.66
2019-05-18T07:17:02.433Z,18.63
2019-05-18T07:18:03.019Z,18.56
2019-05-18T07:19:03.622Z,18.63
2019-05-18T07:20:04.188Z,18.60
2019-05-18T07:21:04.798Z,18.63
2019-05-18T07:22:05.409Z,18.62
2019-05-18T07:25:37.064Z,18.56
2019-05-18T07:26:37.677Z,18.65
2019-05-18T07:28:53.666Z,18.56
2019-05-18T07:29:54.276Z,18.63
2019-05-18T07:30:55.047Z,18.56
2019-05-18T07:31:55.822Z,18.60
2019-05-18T07:32:56.637Z,18.65
2019-05-18T07:33:57.252Z,18.55
2019-05-18T07:34:57.863Z,18.59
2019-05-18T07:35:58.674Z,18.59
2019-05-18T07:36:59.456Z,18.62
2019-05-18T07:37:59.972Z,18.63
2019-05-18T07:39:00.580Z,18.63
2019-05-18T07:40:01.110Z,18.60
2019-05-18T07:41:01.718Z,18.56
2019-05-18T07:42:02.335Z,18.59
2019-05-18T07:43:02.898Z,18.59
2019-05-18T07:44:03.513Z,18.66
2019-05-18T07:45:04.121Z,18.60
2019-05-18T07:46:04.896Z,18.65
2019-05-18T07:47:05.665Z,18.60
2019-05-18T07:48:06.242Z,18.53
2019-05-18T07:49:06.851Z,18.59
2019-05-18T07:50:07.416Z,18.58
2019-05-18T07:52:23.405Z,18.52
2019-05-18T07:53:24.018Z,18.44
2019-05-18T07:54:24.589Z,18.53
2019-05-18T07:56:40.578Z,18.55
2019-05-18T07:57:41.192Z,18.49
2019-05-18T07:58:41.760Z,18.52
2019-05-18T07:59:42.329Z,18.49
2019-05-18T08:01:58.319Z,18.53
2019-05-18T08:04:14.352Z,18.66
2019-05-18T08:05:14.969Z,18.60
2019-05-18T08:06:15.582Z,18.62
2019-05-18T08:07:16.194Z,18.56
2019-05-18T08:09:32.183Z,18.50
2019-05-18T08:10:32.754Z,18.60
2019-05-18T08:12:48.964Z,18.60
2019-05-18T08:13:49.517Z,18.68
2019-05-18T08:15:52.864Z,18.63
2019-05-18T08:16:53.459Z,18.62
2019-05-18T08:17:54.009Z,18.60
2019-05-18T08:18:58.017Z,18.62
2019-05-18T08:19:56.143Z,18.60
2019-05-18T08:20:56.711Z,18.66
2019-05-18T08:21:57.285Z,18.59
2019-05-18T08:22:57.854Z,18.65
2019-05-18T08:23:58.422Z,18.60
2019-05-18T08:24:58.993Z,18.63
2019-05-18T08:25:59.614Z,18.66
2019-05-18T08:27:02.245Z,18.65
2019-05-18T08:28:01.748Z,18.63
2019-05-18T08:30:18.352Z,18.63
2019-05-18T08:31:18.924Z,18.66
2019-05-18T08:32:19.495Z,18.73
2019-05-18T08:33:20.067Z,18.73
2019-05-18T08:34:20.638Z,18.74
2019-05-18T08:35:21.212Z,18.74
2019-05-18T08:36:21.781Z,18.75
2019-05-18T08:37:22.351Z,18.74
2019-05-18T08:38:22.925Z,18.73
2019-05-18T08:39:23.495Z,18.62
2019-05-18T08:40:24.066Z,18.62
2019-05-18T08:41:24.637Z,18.63
2019-05-18T08:42:25.211Z,18.65
2019-05-18T08:43:25.819Z,18.60
2019-05-18T08:44:26.394Z,18.62
2019-05-18T08:45:27.002Z,18.66
2019-05-18T08:46:27.573Z,18.74
2019-05-18T08:47:28.142Z,18.63
2019-05-18T08:48:28.713Z,18.71
2019-05-18T08:49:29.284Z,18.65
2019-05-18T08:50:29.854Z,18.73
2019-05-18T08:51:30.425Z,18.73
2019-05-18T08:52:30.995Z,18.77
2019-05-18T08:53:31.568Z,18.77
2019-05-18T08:54:32.140Z,18.83
2019-05-18T08:55:32.711Z,18.80
2019-05-18T08:56:33.281Z,18.80
2019-05-18T08:57:33.854Z,18.75
2019-05-18T08:58:34.425Z,18.81
2019-05-18T08:59:35.000Z,18.90
2019-05-18T09:00:35.610Z,18.81
2019-05-18T09:01:36.179Z,18.86
2019-05-18T09:02:36.761Z,18.83
2019-05-18T09:03:37.367Z,18.84
2019-05-18T09:04:37.936Z,18.74
2019-05-18T09:05:38.509Z,18.77
2019-05-18T09:06:39.086Z,18.73
2019-05-18T09:07:39.701Z,18.71
2019-05-18T09:08:40.307Z,18.74
2019-05-18T09:09:40.879Z,18.65
2019-05-18T09:10:41.455Z,18.73
2019-05-18T09:11:42.026Z,18.78
2019-05-18T09:12:42.592Z,18.81
2019-05-18T09:13:43.162Z,18.77
2019-05-18T09:14:43.736Z,18.77
2019-05-18T09:15:44.346Z,18.73
2019-05-18T09:16:44.916Z,18.74
2019-05-18T09:17:45.486Z,18.78
2019-05-18T09:18:46.094Z,18.83
2019-05-18T09:19:46.687Z,18.83
2019-05-18T09:20:47.302Z,18.86
2019-05-18T09:21:47.828Z,18.93
2019-05-18T09:22:48.401Z,18.90
2019-05-18T09:23:49.015Z,18.80
2019-05-18T09:24:49.600Z,18.83
2019-05-18T09:25:50.176Z,18.81
2019-05-18T09:26:50.746Z,18.80
2019-05-18T09:27:51.323Z,18.74
2019-05-18T09:28:51.891Z,18.89
2019-05-18T09:29:52.466Z,18.78
2019-05-18T09:30:53.037Z,18.77
2019-05-18T09:31:53.648Z,18.77
2019-05-18T09:32:54.223Z,18.78
2019-05-18T09:33:54.790Z,18.75
2019-05-18T09:34:55.361Z,18.86
2019-05-18T09:35:55.934Z,18.77
2019-05-18T09:36:56.538Z,18.77
2019-05-18T09:37:57.119Z,18.74
2019-05-18T09:38:57.770Z,18.70
2019-05-18T09:39:58.338Z,18.65
2019-05-18T09:40:58.910Z,18.68
2019-05-18T09:41:59.479Z,18.63
2019-05-18T09:43:00.052Z,18.66
2019-05-18T09:44:00.627Z,18.62
2019-05-18T09:45:01.238Z,18.71
2019-05-18T09:46:01.807Z,18.78
2019-05-18T09:47:02.379Z,18.73
2019-05-18T09:48:03.041Z,18.74
2019-05-18T09:49:03.600Z,18.77
2019-05-18T09:50:04.213Z,18.73
2019-05-18T09:51:04.788Z,18.84
2019-05-18T09:52:05.363Z,19.04
2019-05-18T09:53:06.303Z,19.24
2019-05-18T09:54:06.803Z,19.31
2019-05-18T09:55:07.379Z,19.39
2019-05-18T09:56:07.958Z,19.41
2019-05-18T09:57:08.580Z,19.48
2019-05-18T09:58:09.253Z,19.54
2019-05-18T09:59:09.922Z,19.52
2019-05-18T10:00:10.502Z,19.62
2019-05-18T10:01:11.080Z,19.71
2019-05-18T10:02:11.653Z,19.76
2019-05-18T10:03:12.257Z,19.64
2019-05-18T10:04:12.806Z,19.67
2019-05-18T10:05:13.381Z,19.71
2019-05-18T10:10:02.259Z,19.66
2019-05-18T10:13:33.936Z,19.73
2019-05-18T10:14:34.549Z,19.67
2019-05-18T10:16:50.768Z,19.71
2019-05-18T10:23:04.176Z,19.79
2019-05-18T10:23:53.377Z,19.81
2019-05-18T10:24:53.954Z,19.85
2019-05-18T10:25:54.529Z,19.88
2019-05-18T10:26:55.105Z,19.92
2019-05-18T10:27:55.692Z,20.03
2019-05-18T10:28:56.313Z,19.96
2019-05-18T10:29:57.528Z,19.95
2019-05-18T10:30:58.114Z,20.09
2019-05-18T10:31:58.684Z,20.04
2019-05-18T10:32:59.259Z,20.03
2019-05-18T10:33:59.832Z,20.06
2019-05-18T10:35:00.410Z,20.07
2019-05-18T10:38:31.842Z,20.10
2019-05-18T10:39:32.417Z,20.18
2019-05-18T10:40:33.000Z,20.16
2019-05-18T10:41:33.570Z,20.13
2019-05-18T10:42:34.146Z,20.29
2019-05-18T10:43:34.724Z,20.29
2019-05-18T10:44:35.300Z,20.25
2019-05-18T10:45:35.882Z,20.22
2019-05-18T10:46:36.459Z,20.26
2019-05-18T10:47:37.106Z,20.39
2019-05-18T10:48:37.646Z,20.37
2019-05-18T10:49:38.218Z,20.43
2019-05-18T10:50:38.799Z,20.48
2019-05-18T10:51:39.376Z,20.50
2019-05-18T10:53:55.581Z,20.59
2019-05-18T10:54:56.159Z,20.66
2019-05-18T10:55:56.743Z,20.65
2019-05-18T10:56:57.326Z,20.66
2019-05-18T10:57:57.897Z,20.63
2019-05-18T11:01:29.938Z,20.92
2019-05-18T11:27:37.159Z,21.75
2019-05-18T11:44:55.551Z,22.20
2019-05-18T11:46:23.021Z,22.11
2019-05-18T11:52:32.071Z,21.96
2019-05-18T12:14:03.958Z,23.08
2019-05-18T12:15:04.537Z,23.12
2019-05-18T12:16:05.117Z,23.12
2019-05-18T12:18:21.536Z,23.10
2019-05-18T12:20:37.756Z,23.39
2019-05-18T12:24:20.028Z,23.68
2019-05-18T12:25:20.614Z,23.83
2019-05-18T12:26:21.240Z,23.95
2019-05-18T12:27:21.826Z,24.02
2019-05-18T12:28:22.417Z,24.10
2019-05-18T12:29:22.998Z,24.21
2019-05-18T12:30:23.582Z,24.29
2019-05-18T12:31:24.166Z,24.35
2019-05-18T12:32:24.752Z,24.53
2019-05-18T12:33:25.339Z,24.51
2019-05-18T12:34:25.926Z,24.60
2019-05-18T12:35:26.513Z,24.55
2019-05-18T12:36:27.099Z,24.73
2019-05-18T12:37:27.684Z,24.80
2019-05-18T12:38:28.268Z,24.88
2019-05-18T12:39:28.853Z,24.99
2019-05-18T12:40:29.439Z,25.14
2019-05-18T12:41:30.027Z,25.13
2019-05-18T12:42:30.667Z,25.17
2019-05-18T12:43:31.288Z,25.22
2019-05-18T12:44:31.872Z,25.32
2019-05-18T12:45:32.486Z,25.43
2019-05-18T12:46:33.107Z,25.38
2019-05-18T12:47:33.731Z,25.44
2019-05-18T12:48:34.335Z,25.53
2019-05-18T12:49:34.942Z,25.60
2019-05-18T12:50:35.529Z,25.66
2019-05-18T12:51:36.119Z,25.73
2019-05-18T12:52:36.705Z,25.78
2019-05-18T12:53:37.304Z,25.73
2019-05-18T12:54:46.085Z,25.83
2019-05-18T12:55:39.460Z,25.85
2019-05-18T12:56:40.111Z,25.87
2019-05-18T12:57:40.725Z,25.87
2019-05-18T12:58:41.358Z,25.99
2019-05-18T12:59:42.352Z,25.99
2019-05-18T13:02:47.447Z,26.19
2019-05-18T13:03:48.034Z,26.19
2019-05-18T13:04:48.623Z,26.22
2019-05-18T13:05:49.210Z,26.36
2019-05-18T13:06:49.798Z,26.34
2019-05-18T13:07:50.386Z,26.38
2019-05-18T13:09:52.561Z,26.43
2019-05-18T13:10:53.152Z,26.51
2019-05-18T13:11:53.738Z,26.52
2019-05-18T13:12:54.327Z,26.63
2019-05-18T13:13:54.915Z,26.55
2019-05-18T13:14:55.504Z,26.58
2019-05-18T13:15:56.092Z,26.63
2019-05-18T13:16:56.681Z,26.60
2019-05-18T13:17:57.270Z,26.66
2019-05-18T13:18:57.857Z,26.63
2019-05-18T13:19:58.451Z,26.68
2019-05-18T13:20:59.079Z,26.74
2019-05-18T13:21:59.669Z,26.71
2019-05-18T13:23:00.265Z,26.78
2019-05-18T13:24:00.908Z,26.84
2019-05-18T13:25:01.533Z,26.81
2019-05-18T13:26:02.155Z,26.90
2019-05-18T13:27:02.750Z,26.88
2019-05-18T13:28:03.401Z,26.88
2019-05-18T13:29:03.950Z,26.92
2019-05-18T13:30:04.563Z,26.84
2019-05-18T13:31:05.178Z,26.85
2019-05-18T13:32:05.768Z,26.92
2019-05-18T13:33:06.363Z,26.93
2019-05-18T13:34:06.947Z,26.88
2019-05-18T13:35:07.538Z,26.95
2019-05-18T13:36:08.126Z,26.93
2019-05-18T13:37:08.716Z,26.83
2019-05-18T13:38:09.305Z,26.83
2019-05-18T13:39:09.893Z,26.89
2019-05-18T13:40:10.483Z,26.90
2019-05-18T13:41:11.073Z,26.89
2019-05-18T13:42:11.704Z,26.93
2019-05-18T13:43:12.290Z,26.90
2019-05-18T13:44:12.876Z,26.95
2019-05-18T13:45:13.464Z,26.95
2019-05-18T13:46:14.062Z,26.95
2019-05-18T13:47:14.638Z,26.97
2019-05-18T13:48:15.225Z,26.90
2019-05-18T13:54:44.374Z,26.84
2019-05-18T13:58:58.647Z,26.84
2019-05-18T13:59:59.269Z,26.88
2019-05-18T14:00:59.896Z,26.83
2019-05-18T14:02:00.524Z,26.85
2019-05-18T14:03:01.123Z,26.81
2019-05-18T14:04:01.753Z,26.88
2019-05-18T14:05:02.335Z,26.84
2019-05-18T14:06:02.923Z,26.75
2019-05-18T14:07:03.510Z,26.73
2019-05-18T14:08:04.099Z,26.73
2019-05-18T14:09:04.703Z,26.66
2019-05-18T14:10:05.347Z,26.70
2019-05-18T14:11:05.957Z,26.70
2019-05-18T14:13:22.029Z,26.73
2019-05-18T14:14:22.643Z,26.70
2019-05-18T14:15:23.386Z,26.65
2019-05-18T14:16:23.955Z,26.63
2019-05-18T14:17:24.572Z,26.59
2019-05-18T14:18:25.164Z,26.63
2019-05-18T14:19:25.803Z,26.53
2019-05-18T14:20:26.673Z,26.60
2019-05-18T14:21:27.224Z,26.58
2019-05-18T14:22:27.810Z,26.56
2019-05-18T14:23:28.396Z,26.60
2019-05-18T14:24:29.030Z,26.38
2019-05-18T14:25:29.577Z,26.52
2019-05-18T14:26:30.163Z,26.52
2019-05-18T14:27:30.750Z,26.51
2019-05-18T14:28:31.336Z,26.52
2019-05-18T14:29:31.923Z,26.43
2019-05-18T14:30:32.552Z,26.40
2019-05-18T14:31:33.143Z,26.47
2019-05-18T14:32:33.724Z,26.45
2019-05-18T14:33:34.313Z,26.45
2019-05-18T14:34:34.947Z,26.44
2019-05-18T14:35:35.536Z,26.34
2019-05-18T14:36:36.123Z,26.33
2019-05-18T14:37:36.711Z,26.34
2019-05-18T14:38:37.297Z,26.23
2019-05-18T14:39:37.884Z,26.19
2019-05-18T14:40:38.474Z,26.18
2019-05-18T14:41:42.335Z,26.07
2019-05-18T14:42:40.637Z,26.15
2019-05-18T14:43:41.222Z,26.13
2019-05-18T14:44:41.810Z,26.18
2019-05-18T14:45:42.404Z,26.18
2019-05-18T14:46:43.026Z,26.10
2019-05-18T14:47:43.615Z,26.10
2019-05-18T14:48:44.244Z,26.02
2019-05-18T14:49:44.828Z,25.91
2019-05-18T14:50:45.417Z,25.93
2019-05-18T14:51:46.002Z,25.84
2019-05-18T14:52:46.589Z,25.84
2019-05-18T14:53:47.213Z,25.80
2019-05-18T14:54:47.799Z,25.80
2019-05-18T14:55:48.384Z,25.69
2019-05-18T14:56:48.967Z,25.68
2019-05-18T14:57:49.552Z,25.59
2019-05-18T14:58:50.137Z,25.59
2019-05-18T14:59:50.724Z,25.53
2019-05-18T15:00:51.314Z,25.46